»·PEaware :: N943TT AZ50-KLAS

N943TT :: AZ50-KLAS

FLIGHT INFORMATION

Flight Status: Arrived
Operator: Privately registered:
United States
More flights under this callsign
Pilot: Nathan B. (19040)
Aircraft: CESSNA 207 TURBO STATIONAIR
(C207)
More flights by this aircraft type
Origin: AZ50 Triangle Airpark
United States
Destination: KLAS McCarran Intl
United States
More flights between these airports :: More routes between these airports
Route: +WINDS V105 BLD
File this flight plan on PilotEdge
Remarks:
Altitude:
(Current/Filed)
6,000ft
Speed:
(Current/Filed)
130kts
Departed: 02-Oct-18 02:25 PM
Arrived: 02-Oct-18 02:53 PM
Distance/Time
Traveled:
40nm/0:28
Distance/Time
To Go:
Arrived

Flight Plot

Page will automatically refresh every two minutes.

Flight plan parsing failed; only flown route is shown


Map Options




Map Legend


Flown Route
Filed Route
Departure Airport
Arrival Airport
Navaid (VOR, NDB)
Fix

Horizontal Profiles

Position Reports

Time Latitude Longitude Heading Altitude Ground
Speed
02-Oct-18 14:19 35.720063 -114.478432 185 2394ft 0kts
02-Oct-18 14:20 35.720063 -114.478432 185 2394ft 0kts
02-Oct-18 14:21 35.720063 -114.478432 185 2394ft 0kts
02-Oct-18 14:22 35.720063 -114.478432 185 2394ft 0kts
02-Oct-18 14:23 35.720063 -114.478432 185 2394ft 0kts
02-Oct-18 14:24 35.720063 -114.478432 185 2394ft 0kts
02-Oct-18 14:25 35.720063 -114.478432 185 2394ft 0kts
02-Oct-18 14:26 35.720063 -114.478432 185 2394ft 0kts
02-Oct-18 14:27 35.704067 -114.479943 189 2697ft 94kts
02-Oct-18 14:28 35.678334 -114.474824 123 3381ft 112kts
02-Oct-18 14:29 35.697581 -114.449088 346 4147ft 131kts
02-Oct-18 14:30 35.726348 -114.473528 316 4955ft 126kts
02-Oct-18 14:31 35.750430 -114.500167 316 5896ft 110kts
02-Oct-18 14:32 35.772518 -114.524284 316 6882ft 103kts
02-Oct-18 14:33 35.786425 -114.552807 290 7870ft 96kts
02-Oct-18 14:34 35.799000 -114.589083 291 8035ft 129kts
02-Oct-18 14:35 35.813140 -114.629764 291 8032ft 129kts
02-Oct-18 14:36 35.827127 -114.669750 291 8034ft 129kts
02-Oct-18 14:37 35.841396 -114.710336 291 8034ft 129kts
02-Oct-18 14:38 35.855767 -114.750978 291 8034ft 129kts
02-Oct-18 14:39 35.869919 -114.791630 290 8034ft 129kts
02-Oct-18 14:40 35.884099 -114.832362 291 8033ft 129kts
02-Oct-18 14:41 35.898356 -114.873087 291 8033ft 129kts
02-Oct-18 14:42 35.912531 -114.913281 291 8033ft 127kts
02-Oct-18 14:43 35.926701 -114.953202 291 8033ft 127kts
02-Oct-18 14:44 35.940833 -114.993244 292 7540ft 124kts
02-Oct-18 14:45 35.955406 -115.037265 291 7040ft 143kts
02-Oct-18 14:46 35.971996 -115.081890 319 7034ft 144kts
02-Oct-18 14:47 36.011170 -115.087172 1 6145ft 142kts
02-Oct-18 14:48 36.049888 -115.088017 1 5535ft 140kts
02-Oct-18 14:49 36.089489 -115.088596 1 5523ft 145kts
02-Oct-18 14:50 36.129099 -115.088612 2 5352ft 140kts
02-Oct-18 14:51 36.156489 -115.096935 294 4205ft 130kts
02-Oct-18 14:52 36.143029 -115.131247 206 3487ft 120kts
02-Oct-18 14:53 36.116246 -115.146968 197 2561ft 81kts
02-Oct-18 14:54 36.100143 -115.156087 197 2188ft 69kts
02-Oct-18 14:55 36.089362 -115.163566 264 2129ft 0kts
02-Oct-18 14:56 36.089362 -115.163566 264 2129ft 0kts
02-Oct-18 14:57 36.089127 -115.166000 34 2137ft 0kts
02-Oct-18 14:58 36.089127 -115.166000 33 2137ft 0kts
02-Oct-18 14:59 36.089127 -115.166000 33 2137ft 0kts
02-Oct-18 15:00 36.089127 -115.166000 33 2137ft 0kts
02-Oct-18 15:01 36.089127 -115.166000 33 2137ft 0kts
02-Oct-18 15:02 36.089127 -115.166000 33 2137ft 0kts
02-Oct-18 15:03 36.089127 -115.166000 33 2137ft 0kts
02-Oct-18 15:04 36.089127 -115.166000 33 2137ft 0kts
02-Oct-18 15:05 36.089127 -115.166000 33 2137ft 0kts
02-Oct-18 15:06 36.089127 -115.166000 33 2137ft 0kts
02-Oct-18 15:07 36.089127 -115.166000 33 2137ft 0kts
02-Oct-18 15:08 36.089127 -115.166000 33 2137ft 0kts
02-Oct-18 15:09 36.089127 -115.166000 33 2137ft 0kts

Navigation Log

Ident Type
Flight plan parsing failed, navigation log unavailable